Time;durP1;ratioP1;P1;durP2;ratioP2;P2;SDS_P1;SDS_P2;PMS_P1;PMS_P2;Temp;Humidity;BMP_temperature;BMP_pressure;BME280_temperature;BME280_humidity;BME280_pressure;Samples;Min_cycle;Max_cycle;Signal;HPM_P1;HPM_P2
2022/12/25 00:01:41;;;;;;;45.33;16.00;;;5.50;99.90;;;;;;5028925;28;20497;-77
2022/12/25 00:04:07;;;;;;;43.63;13.70;;;5.50;99.90;;;;;;5047583;28;20075;-77
2022/12/25 00:06:32;;;;;;;40.58;15.02;;;5.50;99.90;;;;;;5048867;28;20124;-77
2022/12/25 00:08:58;;;;;;;36.55;15.30;;;7.30;99.90;;;;;;5047895;28;20411;-77
2022/12/25 00:11:24;;;;;;;43.90;14.75;;;5.40;99.90;;;;;;5048713;28;20143;-76
2022/12/25 00:13:49;;;;;;;43.72;15.38;;;5.50;99.90;;;;;;5049520;28;20460;-76
2022/12/25 00:16:18;;;;;;;45.95;14.52;;;5.70;99.90;;;;;;5031010;28;20119;-77
2022/12/25 00:18:44;;;;;;;42.03;14.77;;;6.30;99.90;;;;;;5045767;28;20088;-77
2022/12/25 00:21:10;;;;;;;35.72;14.48;;;5.40;99.90;;;;;;5047305;28;20037;-77
2022/12/25 00:23:36;;;;;;;36.90;14.50;;;5.50;99.90;;;;;;5046014;28;20041;-77
2022/12/25 00:26:11;;;;;;;37.95;14.20;;;5.50;99.90;;;;;;5031017;28;20444;-77
2022/12/25 00:28:37;;;;;;;31.98;13.77;;;5.50;99.90;;;;;;5048055;28;20072;-78
2022/12/25 00:31:08;;;;;;;39.70;14.55;;;5.40;99.90;;;;;;5047356;28;20520;-77
2022/12/25 00:33:35;;;;;;;44.80;14.35;;;5.40;99.90;;;;;;5048211;28;20320;-77
2022/12/25 00:36:01;;;;;;;41.03;15.20;;;5.40;99.90;;;;;;5042594;28;20374;-77
2022/12/25 00:38:27;;;;;;;50.42;15.35;;;5.40;99.90;;;;;;5048709;28;20044;-77
2022/12/25 00:40:53;;;;;;;47.35;15.48;;;5.50;99.90;;;;;;5031137;28;20555;-77
2022/12/25 00:43:19;;;;;;;45.53;16.05;;;5.50;99.90;;;;;;5047392;28;20037;-76
2022/12/25 00:45:54;;;;;;;53.30;15.88;;;5.50;99.90;;;;;;5048305;28;20048;-78
2022/12/25 00:48:19;;;;;;;52.40;15.50;;;5.50;99.90;;;;;;5048871;28;20397;-78
2022/12/25 00:50:45;;;;;;;50.30;14.77;;;5.50;99.90;;;;;;5030528;28;20052;-78
2022/12/25 00:53:11;;;;;;;40.42;16.20;;;5.50;99.90;;;;;;5047540;28;20052;-77
2022/12/25 00:55:36;;;;;;;47.83;15.18;;;5.50;99.90;;;;;;5048264;28;20037;-77
2022/12/25 00:58:02;;;;;;;48.72;16.27;;;5.50;99.90;;;;;;5029904;28;20057;-78
2022/12/25 01:00:28;;;;;;;53.80;17.90;;;7.40;99.90;;;;;;5047805;28;20076;-77
2022/12/25 01:02:53;;;;;;;52.65;16.92;;;5.60;99.90;;;;;;5064450;28;20048;-77
2022/12/25 01:05:19;;;;;;;52.08;17.77;;;5.70;99.90;;;;;;5046835;28;20404;-77
2022/12/25 01:07:44;;;;;;;58.72;18.40;;;5.50;99.90;;;;;;5047899;28;20037;-77
2022/12/25 01:10:22;;;;;;;57.90;17.73;;;7.10;99.90;;;;;;5047629;28;20120;-77
2022/12/25 01:12:48;;;;;;;75.10;21.52;;;5.70;99.90;;;;;;5047605;28;20053;-76
2022/12/25 01:15:14;;;;;;;57.92;19.27;;;7.20;99.90;;;;;;5047044;28;20439;-77
2022/12/25 01:17:41;;;;;;;67.95;18.90;;;5.80;99.90;;;;;;5047955;28;20619;-76
2022/12/25 01:20:07;;;;;;;67.13;19.35;;;6.90;99.90;;;;;;5048636;28;20052;-76
2022/12/25 01:22:33;;;;;;;53.80;20.38;;;5.80;99.90;;;;;;5048759;28;20121;-76
2022/12/25 01:24:59;;;;;;;51.08;19.80;;;6.10;99.90;;;;;;5043573;28;20544;-76
2022/12/25 01:27:24;;;;;;;59.72;19.45;;;5.90;99.90;;;;;;5030447;28;20048;-76
2022/12/25 01:29:50;;;;;;;64.18;19.42;;;5.90;99.90;;;;;;5047389;28;20114;-76
2022/12/25 01:32:15;;;;;;;48.55;18.33;;;5.90;99.90;;;;;;5029864;28;20511;-75
2022/12/25 01:34:41;;;;;;;59.92;20.50;;;5.90;99.90;;;;;;5047503;28;20041;-75
2022/12/25 01:37:07;;;;;;;60.47;19.13;;;5.90;99.90;;;;;;5029998;28;20072;-75
2022/12/25 01:39:33;;;;;;;50.65;18.67;;;6.00;99.90;;;;;;5046398;28;20033;-75
2022/12/25 01:41:59;;;;;;;70.28;23.38;;;6.00;99.90;;;;;;5030329;28;20557;-75
2022/12/25 01:44:36;;;;;;;54.63;20.05;;;6.20;99.90;;;;;;5029347;28;20140;-75
2022/12/25 01:47:04;;;;;;;55.80;19.27;;;6.50;99.90;;;;;;5044091;28;20562;-75
2022/12/25 01:49:33;;;;;;;51.90;18.45;;;6.20;99.90;;;;;;5047253;28;20056;-74
2022/12/25 01:52:09;;;;;;;48.58;20.27;;;6.10;99.90;;;;;;5046020;28;20419;-76
2022/12/25 01:54:43;;;;;;;52.63;19.25;;;7.00;99.90;;;;;;5047807;28;20037;-75
2022/12/25 01:57:24;;;;;;;72.82;21.08;;;6.40;99.90;;;;;;5046212;28;20051;-76
2022/12/25 01:59:50;;;;;;;51.20;19.60;;;6.10;99.90;;;;;;5029353;28;20482;-75
2022/12/25 02:02:16;;;;;;;60.72;20.30;;;6.30;99.90;;;;;;5029600;28;20045;-76
2022/12/25 02:04:51;;;;;;;50.83;19.90;;;7.50;99.90;;;;;;5030539;28;20079;-75
2022/12/25 02:07:20;;;;;;;71.35;22.65;;;6.80;99.90;;;;;;5044805;28;20045;-76
2022/12/25 02:09:47;;;;;;;51.83;18.52;;;6.40;99.90;;;;;;5032744;28;20051;-76
2022/12/25 02:12:19;;;;;;;65.45;20.70;;;6.20;99.90;;;;;;5046445;28;20045;-75
2022/12/25 02:14:46;;;;;;;54.17;20.38;;;6.30;99.90;;;;;;5050874;28;20041;-76
2022/12/25 02:17:34;;;;;;;57.25;19.55;;;6.30;99.90;;;;;;5050133;28;20057;-76
2022/12/25 02:20:18;;;;;;;61.13;20.90;;;6.30;99.90;;;;;;5033949;28;20072;-75
2022/12/25 02:23:15;;;;;;;56.60;20.95;;;6.30;99.90;;;;;;5033837;28;20095;-76
2022/12/25 02:25:57;;;;;;;54.03;20.33;;;6.30;99.90;;;;;;5075962;28;20045;-76
2022/12/25 02:28:38;;;;;;;55.78;19.98;;;6.40;99.90;;;;;;5029852;28;20386;-76
2022/12/25 02:31:40;;;;;;;61.78;20.02;;;6.30;99.90;;;;;;5066748;28;20551;-76
2022/12/25 02:34:24;;;;;;;62.35;20.40;;;6.40;99.90;;;;;;4997330;28;20061;-76
2022/12/25 02:36:58;;;;;;;59.83;19.07;;;6.40;99.90;;;;;;5049517;28;20132;-75
2022/12/25 03:07:44;;;;;;;60.60;21.05;;;8.30;99.90;;;;;;5050050;28;20057;-76
2022/12/25 03:13:24;;;;;;;41.65;19.67;;;6.70;99.90;;;;;;5051142;28;20105;-76
2022/12/25 03:18:35;;;;;;;54.05;21.08;;;6.80;99.90;;;;;;5048837;28;20052;-75
2022/12/25 03:32:47;;;;;;;49.70;19.17;;;6.90;99.90;;;;;;5049879;28;20206;-75
2022/12/25 03:35:25;;;;;;;50.10;21.05;;;6.90;99.90;;;;;;5037013;28;20088;-75
2022/12/25 04:37:33;;;;;;;57.58;22.70;;;7.20;99.90;;;;;;5048134;28;20626;-76
2022/12/25 04:39:58;;;;;;;61.70;22.83;;;7.20;99.90;;;;;;5047955;28;20053;-77
2022/12/25 04:42:24;;;;;;;65.65;24.10;;;7.20;99.90;;;;;;5047665;28;20045;-76
2022/12/25 04:44:49;;;;;;;67.85;23.65;;;7.20;99.90;;;;;;5046172;28;20528;-75
2022/12/25 04:47:15;;;;;;;72.60;24.25;;;7.20;99.90;;;;;;5047616;28;20129;-74
2022/12/25 04:49:41;;;;;;;73.40;25.17;;;7.30;99.90;;;;;;5038854;28;20084;-76
2022/12/25 04:52:06;;;;;;;64.20;23.33;;;7.30;99.90;;;;;;5030762;28;20045;-75
2022/12/25 04:54:32;;;;;;;66.13;23.65;;;7.30;99.90;;;;;;5031548;28;20068;-76
2022/12/25 04:56:57;;;;;;;68.22;22.92;;;7.30;99.90;;;;;;5047253;28;20067;-76
2022/12/25 04:59:23;;;;;;;69.45;23.75;;;7.40;99.90;;;;;;5047382;28;20078;-76
2022/12/25 05:01:49;;;;;;;69.20;24.67;;;7.40;99.90;;;;;;5031503;28;20059;-76
2022/12/25 05:04:14;;;;;;;72.47;25.35;;;7.80;99.90;;;;;;5047183;28;20123;-76
2022/12/25 05:06:40;;;;;;;74.35;23.88;;;7.60;99.90;;;;;;5044579;28;20044;-76
2022/12/25 05:09:06;;;;;;;66.35;23.58;;;7.30;99.90;;;;;;5030524;28;20045;-76
2022/12/25 05:11:32;;;;;;;78.22;23.42;;;7.40;99.90;;;;;;5048603;28;20072;-77
2022/12/25 05:13:57;;;;;;;57.15;22.10;;;7.50;99.90;;;;;;5045096;28;20480;-76
2022/12/25 05:16:24;;;;;;;61.40;23.92;;;7.40;99.90;;;;;;5046161;28;20097;-76
2022/12/25 05:18:50;;;;;;;66.97;22.63;;;7.80;99.90;;;;;;5046707;28;20420;-75
2022/12/25 05:21:17;;;;;;;62.10;20.88;;;7.40;99.90;;;;;;5047491;28;20484;-75
2022/12/25 05:23:47;;;;;;;71.45;23.55;;;7.80;99.90;;;;;;5030182;28;20029;-75
2022/12/25 05:26:15;;;;;;;60.92;22.40;;;8.10;99.90;;;;;;5044009;28;20071;-77
2022/12/25 05:28:41;;;;;;;71.32;23.25;;;8.00;99.90;;;;;;5047769;28;20029;-75
2022/12/25 05:31:07;;;;;;;60.40;23.58;;;7.60;99.90;;;;;;5045767;28;20064;-75
2022/12/25 05:33:32;;;;;;;59.20;23.55;;;8.50;99.90;;;;;;5048913;28;20119;-75
2022/12/25 05:36:02;;;;;;;61.92;23.70;;;7.50;99.90;;;;;;5030424;28;20049;-76
2022/12/25 05:38:28;;;;;;;52.95;23.27;;;7.60;99.90;;;;;;5048361;28;20153;-77
2022/12/25 05:40:54;;;;;;;56.83;23.25;;;7.50;99.90;;;;;;5048235;28;20502;-77
2022/12/25 05:43:19;;;;;;;59.90;22.05;;;7.50;99.90;;;;;;5060326;28;20470;-77
2022/12/25 05:45:45;;;;;;;71.15;25.48;;;7.60;99.90;;;;;;5046365;28;20045;-75
2022/12/25 05:48:11;;;;;;;68.05;24.38;;;7.60;99.90;;;;;;5046448;28;20068;-76
2022/12/25 05:50:37;;;;;;;58.58;23.50;;;7.70;99.90;;;;;;5031082;28;20076;-75
2022/12/25 05:53:04;;;;;;;68.68;24.20;;;8.80;99.90;;;;;;5047326;28;20131;-76
2022/12/25 05:55:33;;;;;;;65.70;26.88;;;7.60;99.90;;;;;;5048310;28;20044;-75
2022/12/25 05:57:59;;;;;;;70.50;27.20;;;7.60;99.90;;;;;;5047000;28;20053;-76
2022/12/25 06:00:25;;;;;;;73.10;25.02;;;7.70;99.90;;;;;;5047074;28;20039;-75
2022/12/25 06:02:50;;;;;;;67.85;27.73;;;7.70;99.90;;;;;;5046644;28;20102;-75
2022/12/25 06:05:16;;;;;;;72.78;26.45;;;7.90;99.90;;;;;;5047996;28;20037;-75
2022/12/25 06:07:42;;;;;;;65.25;26.20;;;7.80;99.90;;;;;;5047840;28;20049;-75
2022/12/25 06:10:08;;;;;;;72.97;28.67;;;7.70;99.90;;;;;;5046437;28;20045;-75
2022/12/25 06:12:33;;;;;;;68.57;27.65;;;7.80;99.90;;;;;;5047414;28;20045;-76
2022/12/25 06:15:02;;;;;;;74.45;26.77;;;7.70;99.90;;;;;;5045912;28;20044;-76
2022/12/25 06:17:28;;;;;;;78.53;27.63;;;7.70;99.90;;;;;;5041287;28;20061;-75
2022/12/25 06:19:54;;;;;;;70.68;26.88;;;7.80;99.90;;;;;;5047382;28;20057;-75
2022/12/25 06:22:19;;;;;;;82.32;27.77;;;7.70;99.90;;;;;;5047922;28;20143;-76
2022/12/25 06:24:45;;;;;;;62.95;25.98;;;7.80;99.90;;;;;;5030375;28;20405;-76
2022/12/25 06:27:11;;;;;;;72.85;28.27;;;7.70;99.90;;;;;;5046995;28;20033;-76
2022/12/25 06:29:36;;;;;;;75.85;26.45;;;7.70;99.90;;;;;;5046860;28;20037;-76
2022/12/25 06:32:02;;;;;;;70.07;27.65;;;8.70;99.90;;;;;;5045901;28;20413;-76
2022/12/25 06:34:28;;;;;;;79.60;27.85;;;7.80;99.90;;;;;;5062679;28;20037;-76
2022/12/25 06:36:53;;;;;;;65.40;26.50;;;7.70;99.90;;;;;;5046180;28;20051;-76
2022/12/25 06:39:24;;;;;;;75.45;27.15;;;7.80;99.90;;;;;;5046148;28;20106;-76
2022/12/25 06:41:50;;;;;;;67.65;27.30;;;7.80;99.90;;;;;;5045317;28;20076;-75
2022/12/25 06:44:15;;;;;;;71.07;27.45;;;7.80;99.90;;;;;;5037493;28;20072;-76
2022/12/25 06:46:41;;;;;;;58.67;25.85;;;7.60;99.90;;;;;;5045260;28;20037;-76
2022/12/25 06:49:07;;;;;;;76.40;27.67;;;7.80;99.90;;;;;;5040652;28;20041;-76
2022/12/25 06:51:32;;;;;;;78.05;28.15;;;7.80;99.90;;;;;;5046863;28;20041;-76
2022/12/25 06:54:02;;;;;;;65.95;27.33;;;7.80;99.90;;;;;;5046626;28;20052;-75
2022/12/25 06:56:29;;;;;;;69.20;27.63;;;7.80;99.90;;;;;;5049519;28;20392;-75
2022/12/25 06:58:57;;;;;;;75.82;27.17;;;7.80;99.90;;;;;;5050013;28;20037;-76
2022/12/25 07:01:28;;;;;;;72.05;26.85;;;8.80;99.90;;;;;;5050236;28;20037;-76
2022/12/25 07:03:58;;;;;;;69.60;29.00;;;7.80;99.90;;;;;;5049561;28;20092;-75
2022/12/25 07:06:23;;;;;;;67.90;26.80;;;7.80;99.90;;;;;;5050164;28;20049;-76
2022/12/25 07:08:49;;;;;;;60.28;27.58;;;7.80;99.90;;;;;;5050101;28;20059;-76
2022/12/25 07:11:15;;;;;;;65.47;28.25;;;7.80;99.90;;;;;;5066233;28;20063;-76
2022/12/25 07:13:40;;;;;;;60.05;26.13;;;7.80;99.90;;;;;;5050252;28;20386;-76
2022/12/25 07:16:06;;;;;;;64.30;26.48;;;7.80;99.90;;;;;;5039149;28;20521;-77
2022/12/25 07:18:33;;;;;;;61.88;26.95;;;7.80;99.90;;;;;;5048534;28;20075;-75
2022/12/25 07:21:07;;;;;;;55.50;25.35;;;7.80;99.90;;;;;;5042176;28;20051;-75
2022/12/25 07:23:33;;;;;;;61.20;25.20;;;7.80;99.90;;;;;;5047868;28;20555;-74
2022/12/25 07:26:00;;;;;;;58.90;26.00;;;9.10;99.90;;;;;;5037862;28;20053;-75
2022/12/25 07:28:26;;;;;;;55.00;25.10;;;7.80;99.90;;;;;;5044249;28;20095;-75
2022/12/25 07:30:52;;;;;;;67.32;25.75;;;7.90;99.90;;;;;;5043203;28;20115;-75
2022/12/25 07:33:18;;;;;;;58.28;25.25;;;7.90;99.90;;;;;;5038712;28;20489;-75
2022/12/25 07:35:44;;;;;;;51.47;24.95;;;7.80;99.90;;;;;;5030708;28;20068;-74
2022/12/25 07:38:10;;;;;;;55.22;25.55;;;7.90;99.90;;;;;;5040292;28;20077;-75
2022/12/25 07:40:37;;;;;;;59.03;25.10;;;7.80;99.90;;;;;;5048895;28;20501;-75
2022/12/25 07:43:03;;;;;;;55.72;25.52;;;7.90;99.90;;;;;;5035719;28;20168;-76
2022/12/25 07:45:28;;;;;;;49.75;23.80;;;7.90;99.90;;;;;;5035694;28;20125;-77
2022/12/25 07:47:54;;;;;;;54.63;24.52;;;9.50;99.90;;;;;;5050517;28;20501;-76
2022/12/25 07:50:20;;;;;;;58.17;23.88;;;7.80;99.90;;;;;;5049274;28;20053;-75
2022/12/25 07:52:47;;;;;;;49.72;24.40;;;8.70;99.90;;;;;;5023776;28;20045;-76
2022/12/25 07:55:12;;;;;;;57.85;24.42;;;7.90;99.90;;;;;;5049051;28;20041;-75
2022/12/25 07:57:41;;;;;;;55.72;22.85;;;7.90;99.90;;;;;;5050847;28;20045;-76
2022/12/25 08:00:07;;;;;;;50.33;22.95;;;7.90;99.90;;;;;;5048465;28;20037;-75
2022/12/25 08:02:33;;;;;;;48.58;22.00;;;7.90;99.90;;;;;;5049566;28;20523;-75
2022/12/25 08:04:58;;;;;;;47.10;21.38;;;7.90;99.90;;;;;;5050446;28;20041;-75
2022/12/25 08:07:26;;;;;;;48.50;22.92;;;7.90;99.90;;;;;;5046563;28;20041;-75
2022/12/25 08:09:51;;;;;;;48.65;23.27;;;8.00;99.90;;;;;;5048657;28;20047;-75
2022/12/25 08:12:17;;;;;;;53.38;22.25;;;8.00;99.90;;;;;;5048876;28;20037;-76
2022/12/25 08:14:43;;;;;;;41.22;20.95;;;7.90;99.90;;;;;;5048760;28;20120;-75
2022/12/25 08:17:08;;;;;;;39.55;22.05;;;8.10;99.90;;;;;;5048872;28;20515;-76
2022/12/25 08:19:34;;;;;;;42.42;20.88;;;8.30;99.90;;;;;;5047968;28;20041;-76
2022/12/25 08:21:59;;;;;;;46.53;20.10;;;7.90;99.90;;;;;;5049608;28;20174;-75
2022/12/25 08:24:25;;;;;;;44.10;19.92;;;8.00;99.90;;;;;;5047912;28;20048;-75
2022/12/25 08:26:51;;;;;;;44.35;19.58;;;8.50;99.90;;;;;;5047538;28;20045;-75
2022/12/25 08:29:16;;;;;;;33.53;18.55;;;8.00;99.90;;;;;;5026634;28;20475;-75
2022/12/25 08:31:43;;;;;;;41.78;18.98;;;8.50;99.90;;;;;;5041517;28;20664;-76
2022/12/25 08:34:09;;;;;;;34.00;18.88;;;8.00;99.90;;;;;;5044435;28;20068;-75
2022/12/25 08:36:36;;;;;;;37.30;18.63;;;8.00;99.90;;;;;;5023829;28;20140;-75
2022/12/25 08:39:02;;;;;;;33.35;17.15;;;9.10;99.90;;;;;;5018333;28;20036;-75
2022/12/25 08:41:28;;;;;;;38.40;17.58;;;8.10;99.90;;;;;;5048188;28;20049;-77
2022/12/25 08:43:54;;;;;;;30.92;16.73;;;8.40;99.90;;;;;;5035229;28;20491;-76
2022/12/25 08:46:20;;;;;;;32.42;15.63;;;8.20;99.90;;;;;;5048743;28;20120;-76
2022/12/25 08:48:47;;;;;;;37.50;16.58;;;8.50;99.90;;;;;;5047191;28;20041;-77
2022/12/25 08:51:20;;;;;;;35.28;15.63;;;8.10;99.90;;;;;;5044464;28;20128;-76
2022/12/25 08:53:47;;;;;;;32.88;15.82;;;8.10;99.90;;;;;;5048686;28;20068;-76
2022/12/25 08:56:13;;;;;;;28.13;15.45;;;8.10;99.90;;;;;;5030080;28;20077;-76
2022/12/25 08:58:39;;;;;;;32.10;15.88;;;8.10;99.90;;;;;;5049101;28;20240;-75
2022/12/25 09:01:06;;;;;;;26.63;15.27;;;8.10;99.90;;;;;;5047436;28;20045;-77
2022/12/25 09:03:32;;;;;;;24.45;14.57;;;8.10;99.90;;;;;;5047024;28;20049;-76
2022/12/25 09:06:08;;;;;;;25.25;13.85;;;9.40;99.90;;;;;;5049060;28;20408;-76
2022/12/25 09:08:34;;;;;;;27.92;14.57;;;8.20;99.90;;;;;;5030878;28;20049;-76
2022/12/25 09:11:19;;;;;;;25.77;13.15;;;8.30;99.90;;;;;;5048401;28;20147;-76
2022/12/25 09:13:46;;;;;;;24.83;14.55;;;8.20;99.90;;;;;;5031453;28;20049;-75
2022/12/25 09:16:15;;;;;;;26.65;13.93;;;8.40;99.90;;;;;;5047835;28;20053;-76
2022/12/25 09:18:40;;;;;;;27.17;13.68;;;8.10;99.90;;;;;;5040273;28;20053;-78
2022/12/25 09:21:09;;;;;;;16.92;12.45;;;8.20;99.90;;;;;;5048213;28;20510;-76
2022/12/25 09:23:35;;;;;;;23.92;12.70;;;9.10;99.90;;;;;;5023795;28;20497;-77
2022/12/25 09:26:03;;;;;;;27.77;12.20;;;8.20;99.90;;;;;;5046988;28;20051;-77
2022/12/25 09:28:29;;;;;;;21.40;12.00;;;8.50;99.90;;;;;;5041320;28;20393;-78
2022/12/25 09:30:55;;;;;;;18.52;11.80;;;8.20;99.90;;;;;;5030143;28;20041;-78
2022/12/25 09:33:21;;;;;;;21.20;12.02;;;8.20;99.90;;;;;;5047220;28;20051;-77
2022/12/25 09:36:01;;;;;;;20.88;11.70;;;8.20;99.90;;;;;;5023033;28;20030;-77
2022/12/25 09:38:28;;;;;;;26.55;12.68;;;8.20;99.90;;;;;;5044458;28;20072;-76
2022/12/25 09:41:17;;;;;;;22.35;11.52;;;8.20;99.90;;;;;;5047875;28;20040;-76
2022/12/25 09:43:58;;;;;;;25.25;12.77;;;8.20;99.90;;;;;;5038907;28;20041;-76
2022/12/25 09:46:26;;;;;;;20.42;11.43;;;8.20;99.90;;;;;;5036648;28;20032;-76
2022/12/25 09:49:03;;;;;;;23.08;11.15;;;8.30;99.90;;;;;;5014179;28;20049;-76
2022/12/25 09:51:32;;;;;;;18.83;11.10;;;9.40;99.90;;;;;;5019408;28;20037;-76
2022/12/25 09:54:20;;;;;;;19.48;10.13;;;8.30;99.90;;;;;;5048079;28;20044;-76
2022/12/25 09:56:46;;;;;;;20.50;9.88;;;8.30;99.90;;;;;;5033427;28;20078;-76
2022/12/25 09:59:24;;;;;;;20.35;10.88;;;9.00;99.90;;;;;;5035577;28;20033;-76
2022/12/25 10:02:09;;;;;;;22.15;10.73;;;8.30;99.90;;;;;;5013704;28;20262;-76
2022/12/25 10:04:49;;;;;;;19.13;9.73;;;8.30;99.90;;;;;;5019892;28;20045;-76
2022/12/25 10:07:27;;;;;;;22.58;10.45;;;8.30;99.90;;;;;;5041143;28;20477;-77
2022/12/25 10:10:26;;;;;;;16.50;9.68;;;8.20;99.90;;;;;;5029738;28;20078;-76
2022/12/25 10:13:07;;;;;;;16.30;9.32;;;8.30;99.90;;;;;;5031386;28;20493;-76
2022/12/25 10:15:34;;;;;;;19.00;9.93;;;8.30;99.90;;;;;;5046793;28;20033;-76
2022/12/25 10:18:30;;;;;;;17.33;9.82;;;8.30;99.90;;;;;;5046812;28;20052;-76
2022/12/25 10:20:59;;;;;;;18.95;9.07;;;8.30;99.90;;;;;;5045490;28;20040;-74
2022/12/25 10:23:31;;;;;;;20.05;10.65;;;9.70;99.90;;;;;;5033636;28;20091;-75
2022/12/25 10:25:56;;;;;;;21.35;10.07;;;8.30;99.90;;;;;;5038655;28;20052;-74
2022/12/25 10:28:38;;;;;;;20.55;8.73;;;8.30;99.90;;;;;;5024880;28;20033;-74
2022/12/25 10:31:22;;;;;;;13.23;9.35;;;8.30;99.90;;;;;;5029078;28;20041;-75
2022/12/25 10:33:49;;;;;;;20.58;9.02;;;8.40;99.90;;;;;;5049594;28;20036;-75
2022/12/25 10:36:21;;;;;;;23.42;9.88;;;8.30;99.90;;;;;;5050628;28;20033;-77
2022/12/25 10:38:48;;;;;;;21.50;10.05;;;8.30;99.90;;;;;;5033548;28;20088;-77
2022/12/25 10:42:02;;;;;;;32.08;21.92;;;8.30;99.90;;;;;;5040587;28;20067;-75
2022/12/25 10:44:29;;;;;;;18.67;10.07;;;8.40;99.90;;;;;;5033040;28;20049;-75
2022/12/25 10:46:59;;;;;;;17.48;10.13;;;8.40;99.90;;;;;;5043980;28;20060;-76
2022/12/25 10:49:31;;;;;;;15.25;9.65;;;8.60;99.90;;;;;;5051080;28;20244;-74
2022/12/25 10:51:57;;;;;;;16.90;9.30;;;8.40;99.90;;;;;;5042412;28;20037;-75
2022/12/25 10:54:26;;;;;;;21.38;9.40;;;8.40;99.90;;;;;;5050763;28;20399;-76
2022/12/25 10:56:57;;;;;;;18.13;8.95;;;9.10;99.90;;;;;;5058750;28;20045;-78
2022/12/25 10:59:26;;;;;;;20.00;9.82;;;8.40;99.90;;;;;;5052282;28;20055;-74
2022/12/25 11:01:52;;;;;;;17.85;8.60;;;8.70;99.90;;;;;;5040364;28;20120;-74
2022/12/25 11:04:27;;;;;;;19.23;8.85;;;8.40;99.90;;;;;;5027404;28;20045;-77
2022/12/25 11:07:02;;;;;;;;;;;8.40;99.90;;;;;;5033269;28;20041;-76
2022/12/25 11:09:28;;;;;;;11.57;7.50;;;8.40;99.90;;;;;;5052470;28;20450;-76
2022/12/25 11:11:53;;;;;;;14.70;7.63;;;8.40;99.90;;;;;;5050354;28;20040;-75
2022/12/25 11:14:21;;;;;;;17.02;9.27;;;9.20;99.90;;;;;;5037659;28;20044;-75
2022/12/25 11:16:48;;;;;;;16.63;8.55;;;9.40;99.90;;;;;;5054427;28;20095;-75
2022/12/25 11:19:29;;;;;;;15.07;7.68;;;8.50;99.90;;;;;;5020537;28;20111;-75
2022/12/25 11:22:00;;;;;;;17.73;7.80;;;8.50;99.90;;;;;;5047578;28;20548;-74
2022/12/25 11:24:29;;;;;;;16.42;8.45;;;8.50;99.90;;;;;;5049215;28;20045;-75
2022/12/25 11:26:57;;;;;;;14.23;7.55;;;8.50;99.90;;;;;;5023760;28;20048;-77
2022/12/25 11:29:29;;;;;;;16.02;7.75;;;8.50;99.90;;;;;;5020750;28;20444;-75
2022/12/25 11:31:57;;;;;;;14.20;7.43;;;8.60;99.90;;;;;;5066819;28;20124;-76
2022/12/25 11:34:41;;;;;;;13.27;7.25;;;8.50;99.90;;;;;;5035848;28;20052;-77
2022/12/25 11:37:22;;;;;;;18.08;8.18;;;8.50;99.90;;;;;;5023510;28;20033;-76
2022/12/25 11:39:48;;;;;;;18.85;7.40;;;8.50;99.90;;;;;;5049480;28;20132;-75
2022/12/25 11:42:36;;;;;;;15.45;7.20;;;8.50;99.90;;;;;;5046188;28;20170;-74
2022/12/25 11:45:14;;;;;;;12.52;7.15;;;8.60;99.90;;;;;;5028547;28;20055;-76
2022/12/25 11:47:53;;;;;;;13.65;7.35;;;8.50;99.90;;;;;;5047194;28;20043;-74
2022/12/25 11:50:29;;;;;;;13.93;6.55;;;8.50;99.90;;;;;;5044631;28;20037;-76
2022/12/25 11:52:58;;;;;;;17.00;7.18;;;8.50;99.90;;;;;;5051991;28;20052;-75
2022/12/25 11:55:44;;;;;;;17.13;6.72;;;8.50;99.90;;;;;;5059192;28;20037;-74
2022/12/25 11:58:19;;;;;;;14.18;6.45;;;8.60;99.90;;;;;;5038496;28;20114;-74
2022/12/25 12:00:48;;;;;;;13.57;6.00;;;8.90;99.90;;;;;;5034723;28;20470;-74
2022/12/25 12:03:28;;;;;;;14.45;6.78;;;9.50;99.90;;;;;;5049238;28;20049;-77
2022/12/25 12:06:16;;;;;;;17.15;6.75;;;8.50;99.90;;;;;;5034485;28;20464;-74
2022/12/25 12:08:42;;;;;;;14.85;6.28;;;8.60;99.90;;;;;;5055889;28;20044;-75
2022/12/25 12:11:20;;;;;;;22.63;18.75;;;9.90;99.90;;;;;;5034752;28;20063;-75
2022/12/25 12:14:18;;;;;;;13.57;6.90;;;8.50;99.90;;;;;;5037089;28;20135;-75
2022/12/25 12:16:43;;;;;;;17.17;8.52;;;8.50;99.90;;;;;;5054034;28;20093;-76
2022/12/25 12:19:24;;;;;;;14.32;6.47;;;8.50;99.90;;;;;;5080936;28;20647;-75
2022/12/25 12:21:51;;;;;;;20.30;7.47;;;8.50;99.90;;;;;;5048232;28;20544;-75
2022/12/25 12:24:20;;;;;;;13.73;6.53;;;8.50;99.90;;;;;;5039107;28;20044;-75
2022/12/25 12:26:57;;;;;;;10.05;6.40;;;8.50;99.90;;;;;;5048716;28;20112;-75
2022/12/25 12:29:48;;;;;;;10.65;7.03;;;9.70;99.90;;;;;;5024556;28;20037;-75
2022/12/25 12:32:22;;;;;;;12.45;6.20;;;8.50;99.90;;;;;;5023944;28;20135;-76
2022/12/25 12:34:51;;;;;;;11.88;6.72;;;8.50;99.90;;;;;;5049281;28;20424;-76
2022/12/25 12:37:24;;;;;;;13.75;7.78;;;8.50;99.90;;;;;;5047931;28;20041;-76
2022/12/25 12:39:54;;;;;;;15.32;7.38;;;9.00;99.90;;;;;;5050257;28;20041;-75
2022/12/25 12:42:24;;;;;;;13.63;7.30;;;8.50;99.90;;;;;;5051030;28;20549;-76
2022/12/25 12:44:52;;;;;;;12.73;7.00;;;8.50;99.90;;;;;;5030450;28;20041;-76
2022/12/25 12:47:39;;;;;;;20.83;8.43;;;8.50;99.90;;;;;;5031479;28;20049;-75
2022/12/25 12:50:06;;;;;;;15.02;7.18;;;8.50;99.90;;;;;;5053312;28;20045;-76
2022/12/25 12:52:37;;;;;;;10.23;7.07;;;8.50;99.90;;;;;;5047228;28;20057;-77
2022/12/25 12:55:11;;;;;;;14.18;7.20;;;8.50;99.90;;;;;;5053043;28;20425;-77
2022/12/25 12:57:38;;;;;;;16.20;6.43;;;8.50;99.90;;;;;;5030886;28;20037;-77
2022/12/25 13:00:15;;;;;;;10.52;6.05;;;9.80;99.90;;;;;;5046973;28;20048;-76
2022/12/25 13:03:08;;;;;;;15.07;6.43;;;8.60;99.90;;;;;;5042842;28;20033;-75
2022/12/25 13:05:40;;;;;;;15.57;6.50;;;8.60;99.90;;;;;;5049824;28;20401;-76
2022/12/25 13:08:34;;;;;;;17.77;6.10;;;8.60;99.90;;;;;;5046893;28;20088;-76
2022/12/25 13:11:26;;;;;;;12.73;6.53;;;8.70;99.90;;;;;;5047705;28;20565;-76
2022/12/25 13:13:55;;;;;;;17.60;7.47;;;8.70;99.90;;;;;;5026703;28;20431;-77
2022/12/25 13:16:41;;;;;;;17.45;7.05;;;8.70;99.90;;;;;;5048692;28;20116;-77
2022/12/25 13:19:12;;;;;;;23.35;9.43;;;8.70;99.90;;;;;;5052797;28;20057;-77
2022/12/25 13:21:39;;;;;;;16.40;8.27;;;8.70;99.90;;;;;;5050952;28;20073;-78
2022/12/25 13:24:18;;;;;;;17.15;8.02;;;8.80;99.90;;;;;;5048227;28;20095;-77
2022/12/25 13:26:44;;;;;;;16.15;6.68;;;8.80;99.90;;;;;;5027938;28;20059;-77
2022/12/25 13:29:32;;;;;;;12.48;6.03;;;8.80;99.90;;;;;;5047541;28;20477;-76
2022/12/25 13:32:00;;;;;;;14.80;7.13;;;8.80;99.90;;;;;;5043248;28;20044;-74
2022/12/25 13:34:36;;;;;;;15.07;7.45;;;8.80;99.90;;;;;;5033763;28;20623;-75
2022/12/25 13:37:12;;;;;;;14.32;6.00;;;8.80;99.90;;;;;;5045481;28;20044;-75
2022/12/25 13:39:54;;;;;;;13.27;6.57;;;8.80;99.90;;;;;;5039502;28;20041;-74
2022/12/25 13:42:27;;;;;;;15.80;5.80;;;8.70;99.90;;;;;;5049423;28;20106;-76
2022/12/25 13:44:56;;;;;;;10.77;6.68;;;8.70;99.90;;;;;;5050872;28;20166;-75
2022/12/25 13:47:25;;;;;;;10.63;6.93;;;8.70;99.90;;;;;;5045219;28;20074;-75
2022/12/25 13:49:53;;;;;;;14.45;6.38;;;9.80;99.90;;;;;;5029062;28;20094;-74
2022/12/25 13:52:40;;;;;;;14.57;6.90;;;9.40;99.90;;;;;;5030185;28;20111;-75
2022/12/25 13:55:21;;;;;;;12.73;6.90;;;8.80;99.90;;;;;;5028443;28;20048;-75
2022/12/25 13:57:56;;;;;;;14.85;6.63;;;8.80;99.90;;;;;;5047308;28;20500;-76
2022/12/25 14:00:31;;;;;;;15.35;7.00;;;8.80;99.90;;;;;;5046461;28;20384;-75
2022/12/25 14:02:57;;;;;;;9.38;7.38;;;8.70;99.90;;;;;;5043550;28;20071;-75
2022/12/25 14:05:30;;;;;;;11.40;6.55;;;8.70;99.90;;;;;;5049832;28;20037;-75
2022/12/25 14:08:00;;;;;;;9.75;6.78;;;8.70;99.90;;;;;;5049657;28;20090;-75
2022/12/25 14:10:33;;;;;;;17.08;12.07;;;9.60;99.90;;;;;;5051800;28;20112;-75
2022/12/25 14:13:03;;;;;;;16.38;8.60;;;8.70;99.90;;;;;;5034870;28;20405;-75
2022/12/25 14:15:31;;;;;;;14.55;8.75;;;8.80;99.90;;;;;;5031514;28;20045;-75
2022/12/25 14:17:57;;;;;;;13.73;8.52;;;8.80;99.90;;;;;;5050235;28;20527;-75
2022/12/25 14:20:35;;;;;;;12.90;8.38;;;8.10;99.90;;;;;;5050762;28;20489;-75
2022/12/25 14:23:01;;;;;;;23.73;11.02;;;8.80;99.90;;;;;;5048705;28;20048;-75
2022/12/25 14:25:40;;;;;;;11.63;8.98;;;8.80;99.90;;;;;;5050258;28;20041;-75
2022/12/25 14:28:15;;;;;;;20.75;11.05;;;8.80;99.90;;;;;;5033223;28;20484;-75
2022/12/25 14:30:42;;;;;;;19.50;11.75;;;10.00;99.90;;;;;;5050869;28;20086;-76
2022/12/25 14:33:23;;;;;;;15.48;10.52;;;8.30;99.90;;;;;;5050026;28;20072;-77
2022/12/25 14:35:50;;;;;;;21.42;11.98;;;8.40;99.90;;;;;;5046794;28;20049;-76
2022/12/25 14:38:33;;;;;;;16.55;11.43;;;8.80;99.90;;;;;;5032953;28;20052;-76
2022/12/25 14:41:01;;;;;;;14.48;12.13;;;8.70;99.90;;;;;;5048347;28;20044;-76
2022/12/25 14:43:28;;;;;;;19.35;13.73;;;9.00;99.90;;;;;;5050863;28;20374;-76